Time;durP1;ratioP1;P1;durP2;ratioP2;P2;SDS_P1;SDS_P2;PMS_P1;PMS_P2;Temp;Humidity;BMP_temperature;BMP_pressure;BME280_temperature;BME280_humidity;BME280_pressure;Samples;Min_cycle;Max_cycle;Signal;HPM_P1;HPM_P2
2022/07/15 00:00:13;;;;;;;5.00;1.83;;;;;;;15.38;85.39;101339.50;690682;28;1332;-42
2022/07/15 00:00:33;;;;;;;4.32;1.60;;;;;;;15.43;85.01;101337.66;684953;28;1519;-44
2022/07/15 00:00:54;;;;;;;4.33;1.60;;;;;;;15.40;85.14;101337.72;685962;28;1385;-46
2022/07/15 00:01:15;;;;;;;4.03;1.70;;;;;;;15.36;85.36;101343.91;688051;28;1079;-42
2022/07/15 00:01:35;;;;;;;5.22;1.70;;;;;;;15.41;85.07;101341.22;691607;28;4444;-44
2022/07/15 00:01:56;;;;;;;5.67;1.80;;;;;;;15.40;85.15;101337.72;693395;28;1238;-44
2022/07/15 00:02:16;;;;;;;5.50;1.83;;;;;;;15.43;85.10;101344.72;688575;28;1404;-43
2022/07/15 00:02:37;;;;;;;3.67;1.70;;;;;;;15.46;84.54;101339.38;693702;28;1246;-44
2022/07/15 00:02:58;;;;;;;3.97;1.63;;;;;;;15.44;84.99;101344.69;693108;28;1011;-43
2022/07/15 00:03:19;;;;;;;3.67;1.52;;;;;;;15.41;84.95;101343.84;692939;28;1234;-42
2022/07/15 00:03:40;;;;;;;4.00;1.70;;;;;;;15.37;85.56;101339.50;693214;28;1566;-45
2022/07/15 00:04:00;;;;;;;3.55;1.60;;;;;;;15.35;85.43;101342.16;693945;28;1274;-42
2022/07/15 00:04:21;;;;;;;4.30;1.65;;;;;;;15.33;85.44;101346.59;696747;28;1110;-43
2022/07/15 00:04:41;;;;;;;4.00;1.80;;;;;;;15.32;85.39;101339.59;696916;28;4979;-42
2022/07/15 00:05:02;;;;;;;4.10;1.90;;;;;;;15.32;85.19;101342.22;696414;28;1561;-44
2022/07/15 00:05:23;;;;;;;4.20;1.80;;;;;;;15.29;86.91;101339.63;697201;28;1229;-43
2022/07/15 00:05:45;;;;;;;4.20;1.60;;;;;;;15.24;86.27;101342.31;696338;28;1984;-43
2022/07/15 00:06:05;;;;;;;4.20;1.70;;;;;;;15.24;86.13;101342.31;696083;28;1285;-43
2022/07/15 00:06:26;;;;;;;3.85;1.60;;;;;;;15.21;86.12;101345.00;695435;28;1297;-42
2022/07/15 00:06:46;;;;;;;3.40;1.60;;;;;;;15.23;86.05;101343.22;697010;28;1238;-42
2022/07/15 00:07:06;;;;;;;4.43;1.70;;;;;;;15.23;86.66;101343.22;698851;28;1166;-42
2022/07/15 00:07:27;;;;;;;4.93;1.70;;;;;;;15.21;86.72;101345.00;698685;28;5172;-42
2022/07/15 00:07:47;;;;;;;5.93;1.90;;;;;;;15.23;85.86;101344.97;703083;27;1335;-43
2022/07/15 00:08:08;;;;;;;5.22;1.77;;;;;;;15.24;86.23;101341.44;701938;27;1073;-44
2022/07/15 00:08:28;;;;;;;6.13;1.80;;;;;;;15.24;86.03;101342.31;700179;28;1196;-43
2022/07/15 00:08:49;;;;;;;4.03;1.70;;;;;;;15.24;86.25;101342.31;698241;28;1455;-43
2022/07/15 00:09:09;;;;;;;3.80;1.80;;;;;;;15.20;86.33;101339.75;696416;28;1431;-42
2022/07/15 00:10:15;;;;;;;3.92;1.90;;;;;;;15.24;86.01;101344.94;697217;28;1336;-44
2022/07/15 00:10:35;;;;;;;3.55;1.75;;;;;;;15.23;85.67;101340.59;699854;28;4716;-42
2022/07/15 00:10:55;;;;;;;4.40;1.67;;;;;;;15.23;86.27;101343.22;699778;28;1221;-43
2022/07/15 00:11:16;;;;;;;5.07;1.83;;;;;;;15.28;86.11;101344.00;700465;28;1134;-43
2022/07/15 00:11:37;;;;;;;3.77;1.70;;;;;;;15.27;85.99;101342.28;700214;28;1237;-42
2022/07/15 00:12:00;;;;;;;4.53;2.00;;;;;;;15.28;86.08;101344.00;694315;28;1175;-43
2022/07/15 00:12:20;;;;;;;5.67;2.10;;;;;;;15.22;86.35;101349.38;693450;28;1153;-43
2022/07/15 00:12:47;;;;;;;4.80;1.73;;;;;;;15.14;86.70;101340.69;694219;28;1317;-42
2022/07/15 00:13:07;;;;;;;4.30;1.80;;;;;;;15.11;87.02;101341.59;692773;28;1187;-42
2022/07/15 00:13:28;;;;;;;4.00;1.80;;;;;;;15.15;86.85;101348.56;693010;28;4306;-42
2022/07/15 00:13:48;;;;;;;4.13;1.75;;;;;;;15.15;86.45;101342.44;695398;28;1229;-42
2022/07/15 00:14:08;;;;;;;5.67;1.73;;;;;;;15.15;86.83;101342.44;698819;28;1113;-43
2022/07/15 00:14:29;;;;;;;6.38;2.00;;;;;;;15.15;86.86;101337.19;700770;28;1300;-42
2022/07/15 00:14:50;;;;;;;4.47;1.90;;;;;;;15.13;86.93;101346.84;699556;28;1138;-42
2022/07/15 00:15:11;;;;;;;5.50;1.97;;;;;;;15.10;86.78;101339.84;699394;28;1153;-42
2022/07/15 00:15:32;;;;;;;5.93;1.98;;;;;;;15.10;86.69;101337.22;699488;28;1280;-44
2022/07/15 00:15:52;;;;;;;5.53;1.90;;;;;;;15.09;87.22;101342.50;699860;28;1256;-43
2022/07/15 00:16:14;;;;;;;6.03;2.00;;;;;;;15.05;87.13;101331.16;700106;28;1139;-43
2022/07/15 00:16:35;;;;;;;3.90;1.90;;;;;;;15.06;86.97;101342.56;699758;28;4547;-42
2022/07/15 00:16:55;;;;;;;6.20;1.77;;;;;;;15.03;87.38;101339.97;700403;28;1245;-42
2022/07/15 00:17:16;;;;;;;6.50;1.90;;;;;;;15.06;86.85;101340.78;698687;28;1150;-43
2022/07/15 00:17:36;;;;;;;4.57;1.80;;;;;;;15.08;87.07;101336.38;700253;28;1368;-42
2022/07/15 00:18:01;;;;;;;5.53;1.85;;;;;;;15.07;87.52;101346.94;700702;28;1685;-42
2022/07/15 00:18:21;;;;;;;5.15;1.80;;;;;;;15.03;87.77;101338.19;695583;28;1602;-42
2022/07/15 00:18:42;;;;;;;5.77;2.00;;;;;;;15.04;87.58;101339.94;698261;28;1175;-42
2022/07/15 00:19:02;;;;;;;3.95;2.00;;;;;;;15.01;88.07;101341.72;696901;28;1432;-43
2022/07/15 00:19:22;;;;;;;6.23;2.00;;;;;;;14.99;88.13;101341.75;696543;28;1420;-42
2022/07/15 00:19:43;;;;;;;5.73;2.00;;;;;;;14.96;88.31;101342.66;695756;28;4427;-43
2022/07/15 00:20:05;;;;;;;4.50;1.90;;;;;;;14.95;88.30;101333.03;695302;28;1498;-42
2022/07/15 00:20:26;;;;;;;4.68;1.80;;;;;;;14.98;88.08;101338.25;698770;28;1791;-42
2022/07/15 00:20:46;;;;;;;5.20;1.98;;;;;;;15.04;87.62;101347.00;698526;28;1273;-42
2022/07/15 00:21:07;;;;;;;5.27;2.10;;;;;;;15.05;87.93;101338.16;699456;28;1206;-43
2022/07/15 00:21:31;;;;;;;4.82;1.80;;;;;;;15.04;88.33;101341.72;699315;28;1138;-42
2022/07/15 00:21:51;;;;;;;4.93;2.00;;;;;;;14.99;87.54;101336.50;700258;28;1089;-42
2022/07/15 00:22:11;;;;;;;4.27;1.90;;;;;;;15.00;87.83;101340.88;698955;28;1222;-43
2022/07/15 00:22:32;;;;;;;4.72;2.03;;;;;;;15.01;87.71;101341.72;701365;28;4433;-42
2022/07/15 00:22:52;;;;;;;4.43;2.00;;;;;;;14.98;89.18;101340.91;700099;28;1245;-42
2022/07/15 00:23:12;;;;;;;3.97;1.90;;;;;;;15.00;88.85;101337.38;698256;28;1121;-42
2022/07/15 00:23:33;;;;;;;4.78;1.95;;;;;;;15.02;88.09;101340.84;700503;28;1281;-42
2022/07/15 00:23:53;;;;;;;5.37;2.00;;;;;;;15.02;88.24;101338.22;701279;28;1272;-42
2022/07/15 00:24:13;;;;;;;5.03;2.10;;;;;;;15.00;88.71;101343.50;699851;28;1161;-42
2022/07/15 00:24:34;;;;;;;4.37;1.90;;;;;;;15.04;88.65;101345.22;699339;28;5234;-41
2022/07/15 00:24:54;;;;;;;5.35;1.92;;;;;;;15.00;88.70;101338.25;699554;28;1286;-42
2022/07/15 00:25:16;;;;;;;6.53;1.93;;;;;;;15.00;88.03;101340.88;698364;28;1078;-42
2022/07/15 00:25:36;;;;;;;5.65;1.80;;;;;;;15.01;89.00;101337.34;699467;28;4590;-43
2022/07/15 00:25:56;;;;;;;4.95;2.00;;;;;;;15.03;89.25;101337.34;698290;28;1967;-44
2022/07/15 00:26:17;;;;;;;5.20;1.87;;;;;;;15.08;88.41;101339.03;699226;28;2673;-43
2022/07/15 00:26:37;;;;;;;4.53;1.75;;;;;;;15.05;88.80;101336.44;697679;28;1376;-42
2022/07/15 00:26:58;;;;;;;4.70;1.93;;;;;;;15.04;88.69;101342.59;696660;28;1234;-46
2022/07/15 00:27:19;;;;;;;5.88;2.00;;;;;;;15.00;88.95;101334.75;696722;28;1085;-43
2022/07/15 00:27:51;;;;;;;6.43;2.10;;;;;;;14.98;88.07;101330.38;698358;28;1539;-42
2022/07/15 00:28:11;;;;;;;6.47;2.10;;;;;;;14.99;88.91;101333.84;692900;28;1063;-44
2022/07/15 00:28:32;;;;;;;5.93;2.30;;;;;;;14.90;89.22;101337.47;695046;28;4838;-42
2022/07/15 00:28:53;;;;;;;3.30;2.00;;;;;;;14.90;89.34;101337.47;696848;28;1254;-42
2022/07/15 00:29:14;;;;;;;5.18;1.98;;;;;;;14.90;89.29;101334.00;697863;28;1095;-44
2022/07/15 00:29:34;;;;;;;5.13;2.00;;;;;;;14.87;89.56;101334.91;696780;28;1206;-42
2022/07/15 00:29:54;;;;;;;5.03;2.10;;;;;;;14.87;89.60;101334.00;698471;28;1134;-42
2022/07/15 00:30:15;;;;;;;4.07;2.08;;;;;;;14.82;89.68;101339.34;695943;28;1076;-42
2022/07/15 00:30:38;;;;;;;4.57;2.00;;;;;;;14.84;89.17;101334.91;693774;28;1257;-41
2022/07/15 00:30:58;;;;;;;6.35;2.00;;;;;;;14.84;89.05;101336.69;693514;28;1397;-43
2022/07/15 00:31:19;;;;;;;4.55;1.90;;;;;;;14.83;89.84;101335.81;692962;28;1182;-42
2022/07/15 00:31:39;;;;;;;3.97;1.93;;;;;;;14.85;89.42;101339.28;692714;28;4577;-43
2022/07/15 00:32:00;;;;;;;4.63;2.00;;;;;;;14.84;89.06;101336.69;694186;28;1305;-43
2022/07/15 00:32:21;;;;;;;5.10;2.00;;;;;;;14.83;89.59;101335.81;696564;28;1071;-42
2022/07/15 00:32:41;;;;;;;4.85;2.00;;;;;;;14.83;90.03;101341.09;697792;28;1417;-42
2022/07/15 00:33:02;;;;;;;5.15;2.30;;;;;;;14.84;89.78;101337.53;692595;28;1385;-42
2022/07/15 00:33:23;;;;;;;4.95;2.03;;;;;;;14.86;89.02;101334.91;692206;28;1199;-45
2022/07/15 00:33:43;;;;;;;3.43;1.90;;;;;;;14.87;89.15;101337.53;689896;28;1433;-43
2022/07/15 00:34:04;;;;;;;6.10;2.03;;;;;;;14.87;89.90;101336.63;693141;28;1243;-45
2022/07/15 00:34:24;;;;;;;5.10;2.10;;;;;;;14.91;90.13;101335.72;693446;28;1198;-43
2022/07/15 00:34:45;;;;;;;4.88;2.05;;;;;;;14.95;89.36;101338.31;693816;28;4339;-45
2022/07/15 00:35:07;;;;;;;5.70;2.13;;;;;;;14.94;89.89;101336.56;698979;28;1091;-44
2022/07/15 00:35:29;;;;;;;5.82;2.22;;;;;;;14.90;89.83;101340.13;698489;28;1245;-42
2022/07/15 00:35:49;;;;;;;5.82;2.10;;;;;;;14.95;89.30;101340.94;700416;28;1266;-43
2022/07/15 00:36:10;;;;;;;5.73;2.10;;;;;;;14.93;89.83;101344.47;696166;28;1088;-42
2022/07/15 00:36:30;;;;;;;4.95;2.05;;;;;;;14.97;88.70;101341.78;693962;28;1236;-43
2022/07/15 00:36:51;;;;;;;4.13;2.00;;;;;;;14.97;88.79;101339.16;694653;28;1147;-44
2022/07/15 00:37:11;;;;;;;4.85;2.08;;;;;;;14.94;90.00;101339.19;690367;28;2069;-42
2022/07/15 00:37:32;;;;;;;5.97;2.10;;;;;;;14.95;89.33;101340.94;690917;28;4626;-45
2022/07/15 00:37:52;;;;;;;4.72;1.90;;;;;;;14.95;89.99;101337.41;690612;28;1061;-42
2022/07/15 00:38:12;;;;;;;6.77;2.10;;;;;;;14.96;89.97;101337.41;693646;28;1008;-43
2022/07/15 00:38:33;;;;;;;5.20;2.10;;;;;;;14.97;89.82;101339.16;695620;28;1400;-42
2022/07/15 00:38:53;;;;;;;5.67;2.10;;;;;;;15.01;89.57;101345.25;696963;28;1345;-42
2022/07/15 00:39:14;;;;;;;5.07;1.90;;;;;;;14.97;89.76;101344.41;696240;28;1046;-42
2022/07/15 00:39:36;;;;;;;5.38;2.10;;;;;;;14.93;89.95;101337.44;696938;28;1340;-43
2022/07/15 00:39:56;;;;;;;5.32;2.13;;;;;;;14.93;89.95;101337.44;694110;28;1481;-42
2022/07/15 00:40:17;;;;;;;6.28;2.20;;;;;;;14.93;90.03;101331.31;687260;28;1041;-42
2022/07/15 00:40:42;;;;;;;6.33;1.97;;;;;;;14.90;89.72;101339.25;689513;28;4506;-43
2022/07/15 00:41:02;;;;;;;4.53;2.10;;;;;;;14.84;90.28;101341.94;689518;28;1124;-42
2022/07/15 00:41:23;;;;;;;5.30;2.70;;;;;;;14.86;90.45;101337.56;694064;28;1432;-43
2022/07/15 00:41:44;;;;;;;5.03;2.17;;;;;;;14.84;90.46;101337.53;696299;28;1241;-43
2022/07/15 00:42:04;;;;;;;4.38;2.20;;;;;;;14.78;90.68;101337.63;698678;28;1374;-44
2022/07/15 00:42:43;;;;;;;4.63;2.30;;;;;;;14.77;90.82;101338.50;696646;28;1233;-42
2022/07/15 00:43:04;;;;;;;6.28;2.30;;;;;;;14.80;90.42;101336.72;696177;28;1407;-42
2022/07/15 00:43:24;;;;;;;7.17;2.20;;;;;;;14.84;89.88;101337.53;693881;28;1158;-43
2022/07/15 00:43:44;;;;;;;6.15;2.10;;;;;;;14.79;90.91;101334.97;693779;28;4459;-42
2022/07/15 00:44:05;;;;;;;4.93;1.97;;;;;;;14.75;91.08;101338.53;694370;28;1072;-42
2022/07/15 00:44:25;;;;;;;5.47;2.30;;;;;;;14.77;91.90;101338.50;691623;28;1111;-42
2022/07/15 00:44:46;;;;;;;7.70;2.30;;;;;;;14.78;91.40;101329.72;692713;28;1275;-42
2022/07/15 00:45:09;;;;;;;6.30;2.10;;;;;;;14.78;91.44;101337.63;692160;28;1404;-43
2022/07/15 00:45:30;;;;;;;5.25;1.95;;;;;;;14.75;91.44;101332.41;694136;28;1049;-42
2022/07/15 00:45:52;;;;;;;4.93;2.30;;;;;;;14.72;91.41;101327.19;693868;28;1926;-43
2022/07/15 00:46:18;;;;;;;6.45;2.33;;;;;;;14.73;91.78;101337.69;695343;28;978;-42
2022/07/15 00:46:39;;;;;;;5.35;2.20;;;;;;;14.75;91.35;101332.41;694504;28;4448;-43
2022/07/15 00:47:00;;;;;;;5.78;2.50;;;;;;;14.71;92.12;101333.31;696144;28;3616;-42
2022/07/15 00:47:20;;;;;;;5.47;2.50;;;;;;;14.74;91.71;101333.28;692944;28;1389;-42
2022/07/15 00:47:52;;;;;;;5.07;2.23;;;;;;;14.72;91.46;101329.81;691202;28;1389;-43
2022/07/15 00:48:14;;;;;;;6.13;2.20;;;;;;;14.71;91.34;101326.28;691361;28;995;-42
2022/07/15 00:48:34;;;;;;;4.73;2.10;;;;;;;14.74;91.10;101330.66;692343;28;1348;-42
2022/07/15 00:48:55;;;;;;;5.00;2.05;;;;;;;14.75;91.04;101332.41;693966;28;1029;-43
2022/07/15 00:49:15;;;;;;;5.23;2.10;;;;;;;14.73;91.35;101328.91;695536;28;1083;-44
2022/07/15 00:49:36;;;;;;;4.10;2.00;;;;;;;14.65;92.91;101331.63;698679;28;5464;-42
2022/07/15 00:49:56;;;;;;;5.17;2.10;;;;;;;14.60;92.66;101331.63;699697;28;1091;-43
2022/07/15 00:50:18;;;;;;;5.82;2.20;;;;;;;14.59;92.30;101329.91;696953;28;1036;-42
2022/07/15 00:50:38;;;;;;;5.75;2.00;;;;;;;14.63;91.31;101321.13;696960;28;1282;-43
2022/07/15 00:50:59;;;;;;;5.47;2.28;;;;;;;14.62;92.38;101326.34;697843;28;887;-41
2022/07/15 00:51:19;;;;;;;4.60;2.10;;;;;;;14.63;91.41;101334.28;696253;28;1108;-41
2022/07/15 00:51:43;;;;;;;5.17;2.20;;;;;;;14.62;91.90;101335.16;698013;28;1352;-43
2022/07/15 00:52:05;;;;;;;6.03;2.10;;;;;;;14.57;92.45;101329.03;695172;28;1242;-42
2022/07/15 00:52:27;;;;;;;6.70;2.10;;;;;;;14.57;92.25;101330.81;694038;28;1174;-42
2022/07/15 00:52:55;;;;;;;5.68;2.00;;;;;;;14.53;92.69;101327.34;693564;28;5145;-42
2022/07/15 00:53:20;;;;;;;4.30;1.88;;;;;;;14.55;92.22;101336.09;693723;28;1265;-42
2022/07/15 00:53:43;;;;;;;4.88;2.10;;;;;;;14.53;92.72;101337.00;694056;28;1320;-42
2022/07/15 00:54:05;;;;;;;4.63;2.00;;;;;;;14.48;92.97;101339.66;695943;28;1447;-42
2022/07/15 00:54:27;;;;;;;4.72;2.10;;;;;;;14.42;93.20;101339.72;692188;28;1246;-43
2022/07/15 00:54:49;;;;;;;5.57;2.22;;;;;;;14.43;92.91;101333.59;694149;28;1201;-42
2022/07/15 00:55:11;;;;;;;6.22;2.38;;;;;;;14.46;93.00;101330.94;693835;28;1221;-42
2022/07/15 00:55:43;;;;;;;5.80;2.40;;;;;;;14.43;93.46;101331.81;694184;28;4602;-42
2022/07/15 00:56:08;;;;;;;4.65;2.20;;;;;;;14.43;93.12;101333.59;692571;28;1368;-44
2022/07/15 00:56:30;;;;;;;5.47;2.20;;;;;;;14.43;93.45;101337.09;693543;28;1087;-42
2022/07/15 00:56:54;;;;;;;5.43;2.20;;;;;;;14.45;92.99;101337.06;693615;28;1108;-43
2022/07/15 00:57:17;;;;;;;6.00;2.20;;;;;;;14.46;92.98;101334.41;693852;28;1382;-42
2022/07/15 00:57:44;;;;;;;6.57;2.20;;;;;;;14.44;92.75;101332.69;693663;28;1250;-42
2022/07/15 00:58:07;;;;;;;5.70;2.10;;;;;;;14.41;93.22;101335.34;692500;28;1138;-42
2022/07/15 00:58:29;;;;;;;4.63;2.08;;;;;;;14.41;92.73;101337.97;696412;28;4645;-42
2022/07/15 00:58:51;;;;;;;5.85;2.05;;;;;;;14.40;93.73;101331.84;695750;28;1213;-44
2022/07/15 00:59:13;;;;;;;4.72;2.10;;;;;;;14.41;93.70;101328.34;695034;28;1219;-45
2022/07/15 00:59:36;;;;;;;4.90;2.30;;;;;;;14.47;92.44;101332.69;689761;28;1172;-42
2022/07/15 01:00:01;;;;;;;5.53;2.25;;;;;;;14.47;92.36;101337.94;691535;28;1243;-42
2022/07/15 01:00:21;;;;;;;5.10;2.20;;;;;;;14.45;93.43;101334.44;690742;28;1247;-42
2022/07/15 01:00:43;;;;;;;5.30;2.30;;;;;;;14.42;93.63;101335.34;689833;28;1514;-42
2022/07/15 01:01:07;;;;;;;4.70;2.33;;;;;;;14.36;93.94;101331.88;689207;28;1470;-42
2022/07/15 01:01:27;;;;;;;4.50;2.20;;;;;;;14.37;93.62;101336.25;690830;28;4499;-42
2022/07/15 01:01:48;;;;;;;4.90;2.23;;;;;;;14.33;94.22;101334.56;695443;28;1043;-43
2022/07/15 01:02:08;;;;;;;5.50;2.55;;;;;;;14.34;94.05;101331.03;698377;28;978;-42
2022/07/15 01:02:31;;;;;;;5.80;2.37;;;;;;;14.33;93.64;101330.19;694476;28;1400;-42
2022/07/15 01:02:52;;;;;;;6.20;2.13;;;;;;;14.34;93.13;101336.31;691951;28;1352;-43
2022/07/15 01:03:21;;;;;;;5.50;2.10;;;;;;;14.36;93.45;101331.88;692299;28;1167;-42
2022/07/15 01:03:42;;;;;;;4.72;2.30;;;;;;;14.31;93.78;101331.94;692223;28;1396;-42
2022/07/15 01:04:04;;;;;;;4.35;2.13;;;;;;;14.29;93.99;101342.47;692856;28;1259;-44
2022/07/15 01:04:27;;;;;;;4.85;2.22;;;;;;;14.29;93.72;101333.72;692668;28;1429;-42
2022/07/15 01:04:48;;;;;;;7.32;2.35;;;;;;;14.23;94.67;101329.41;696243;28;4830;-44
2022/07/15 01:05:10;;;;;;;6.68;2.10;;;;;;;14.18;95.21;101332.94;696452;28;1149;-42
2022/07/15 01:05:31;;;;;;;6.30;2.35;;;;;;;14.14;94.98;101330.34;694472;28;1397;-42
2022/07/15 01:05:54;;;;;;;5.23;2.33;;;;;;;14.18;94.28;101338.19;697163;28;1917;-42
2022/07/15 01:06:15;;;;;;;7.13;2.50;;;;;;;14.15;95.03;101331.22;696878;28;1414;-42
2022/07/15 01:06:36;;;;;;;7.22;2.38;;;;;;;14.15;95.65;101341.75;698263;28;1222;-42
2022/07/15 01:06:56;;;;;;;5.77;2.37;;;;;;;14.15;95.67;101341.75;697632;28;1387;-43
2022/07/15 01:07:17;;;;;;;6.72;2.40;;;;;;;14.19;94.64;101330.31;694788;28;1335;-43
2022/07/15 01:07:38;;;;;;;7.40;2.17;;;;;;;14.20;94.58;101337.28;696793;28;4445;-42
2022/07/15 01:07:59;;;;;;;6.40;2.35;;;;;;;14.21;95.13;101332.94;695709;28;1316;-42
2022/07/15 01:08:20;;;;;;;5.40;2.30;;;;;;;14.16;95.38;101338.22;692958;28;2253;-42
2022/07/15 01:08:43;;;;;;;6.07;2.30;;;;;;;14.18;95.41;101338.19;694231;28;1271;-42
2022/07/15 01:09:05;;;;;;;6.88;2.40;;;;;;;14.19;94.54;101335.56;689563;28;1846;-42
2022/07/15 01:09:26;;;;;;;6.10;2.40;;;;;;;14.18;95.03;101341.72;690262;28;1337;-42
2022/07/15 01:09:47;;;;;;;6.72;2.40;;;;;;;14.22;94.21;101343.44;688603;28;1391;-44
2022/07/15 01:10:08;;;;;;;5.72;2.20;;;;;;;14.24;94.40;101338.16;688973;28;1461;-43
2022/07/15 01:10:35;;;;;;;4.80;2.10;;;;;;;14.21;95.07;101339.03;687973;28;4568;-42
2022/07/15 01:10:56;;;;;;;5.10;2.25;;;;;;;14.19;95.30;101337.31;684460;28;1452;-42
2022/07/15 01:11:17;;;;;;;5.30;2.40;;;;;;;14.18;95.29;101340.81;686421;28;1151;-42
2022/07/15 01:11:37;;;;;;;5.63;2.30;;;;;;;14.14;95.26;101342.63;688120;28;1498;-42
2022/07/15 01:11:59;;;;;;;5.68;2.45;;;;;;;14.16;94.25;101338.22;691800;28;1260;-42
2022/07/15 01:12:23;;;;;;;5.10;2.30;;;;;;;14.18;94.88;101335.56;692187;28;1433;-42
2022/07/15 01:12:47;;;;;;;5.28;2.40;;;;;;;14.16;95.76;101340.84;694522;28;1859;-43
2022/07/15 01:13:08;;;;;;;7.15;2.50;;;;;;;14.21;95.05;101336.41;693460;28;1256;-42
2022/07/15 01:13:28;;;;;;;4.23;2.17;;;;;;;14.23;94.67;101345.19;693868;28;4409;-42
2022/07/15 01:13:49;;;;;;;5.65;2.40;;;;;;;14.23;93.59;101339.91;693602;28;1627;-42
2022/07/15 01:14:10;;;;;;;6.10;2.10;;;;;;;14.25;94.34;101339.91;693332;28;1464;-42
2022/07/15 01:14:30;;;;;;;4.43;2.03;;;;;;;14.27;94.48;101343.38;692705;28;1373;-42
2022/07/15 01:14:51;;;;;;;6.80;2.33;;;;;;;14.28;93.50;101339.88;693911;28;2089;-42
2022/07/15 01:15:12;;;;;;;7.07;2.50;;;;;;;14.27;93.14;101336.38;696051;28;1544;-44
2022/07/15 01:15:33;;;;;;;5.30;2.30;;;;;;;14.23;94.51;101339.03;693543;28;1298;-42
2022/07/15 01:15:54;;;;;;;5.32;2.40;;;;;;;14.21;94.71;101344.31;693434;28;1270;-41
2022/07/15 01:16:15;;;;;;;6.97;2.40;;;;;;;14.17;95.47;101339.97;690421;28;1068;-43
2022/07/15 01:16:36;;;;;;;5.70;2.20;;;;;;;14.16;95.30;101340.84;690363;28;4766;-42
2022/07/15 01:16:56;;;;;;;5.93;2.40;;;;;;;14.12;95.29;101342.63;693507;28;1444;-42
2022/07/15 01:17:19;;;;;;;6.35;2.40;;;;;;;14.13;94.94;101343.50;691936;28;1692;-42
2022/07/15 01:17:39;;;;;;;5.20;2.35;;;;;;;14.13;95.35;101343.50;692521;28;1336;-43
2022/07/15 01:18:03;;;;;;;6.30;2.60;;;;;;;14.13;95.66;101344.34;694881;28;1556;-42
2022/07/15 01:18:25;;;;;;;4.78;2.22;;;;;;;14.13;95.20;101349.63;692003;28;1461;-42
2022/07/15 01:18:46;;;;;;;4.30;2.43;;;;;;;14.16;95.94;101347.88;690449;28;1388;-42
2022/07/15 01:19:07;;;;;;;7.03;2.33;;;;;;;14.20;94.55;101342.56;691082;28;1270;-42
2022/07/15 01:19:34;;;;;;;5.60;2.10;;;;;;;14.25;94.09;101342.53;690199;28;4382;-41
2022/07/15 01:19:55;;;;;;;5.53;2.10;;;;;;;14.25;94.75;101342.53;693956;28;1199;-42
2022/07/15 01:20:16;;;;;;;6.68;2.38;;;;;;;14.19;95.16;101343.47;693001;28;1280;-42
2022/07/15 01:20:53;;;;;;;5.32;2.42;;;;;;;14.15;95.37;101341.75;693248;28;1397;-42
2022/07/15 01:21:14;;;;;;;6.55;2.42;;;;;;;14.14;94.61;101342.63;693626;28;1072;-42
2022/07/15 01:21:36;;;;;;;6.88;2.38;;;;;;;14.16;94.22;101346.09;692955;28;1550;-42
2022/07/15 01:21:56;;;;;;;5.00;2.47;;;;;;;14.17;95.56;101345.22;694832;28;2107;-43
2022/07/15 01:22:17;;;;;;;5.53;2.60;;;;;;;14.23;94.40;101349.53;697111;28;1123;-43
2022/07/15 01:22:38;;;;;;;5.40;2.23;;;;;;;14.22;94.71;101346.06;693573;28;4406;-42
2022/07/15 01:22:59;;;;;;;6.72;2.45;;;;;;;14.18;95.23;101351.34;692371;28;1203;-42
2022/07/15 01:23:26;;;;;;;6.72;2.40;;;;;;;14.17;93.61;101350.47;690494;28;1321;-42
2022/07/15 01:23:55;;;;;;;5.22;2.30;;;;;;;14.20;94.26;101349.59;690372;28;1711;-42
2022/07/15 01:24:25;;;;;;;7.05;2.30;;;;;;;14.18;95.22;101346.97;688656;28;4717;-42
2022/07/15 01:25:09;;;;;;;5.20;2.30;;;;;;;14.10;95.60;101346.16;684683;28;1690;-43
2022/07/15 01:25:30;;;;;;;5.95;2.30;;;;;;;14.08;95.78;101345.28;692226;28;4963;-43
2022/07/15 01:25:53;;;;;;;8.10;2.50;;;;;;;14.06;95.03;101349.69;693353;28;1931;-44
2022/07/15 01:26:14;;;;;;;7.50;2.60;;;;;;;14.07;96.08;101349.69;695338;28;1274;-42
2022/07/15 01:26:36;;;;;;;5.35;2.30;;;;;;;14.05;96.06;101343.59;692863;28;1534;-42
2022/07/15 01:26:57;;;;;;;5.45;2.45;;;;;;;14.06;95.53;101347.06;689745;28;1666;-41
2022/07/15 01:27:18;;;;;;;5.40;2.70;;;;;;;14.07;95.78;101343.56;687077;28;1371;-42
2022/07/15 01:27:41;;;;;;;6.22;2.38;;;;;;;14.05;96.16;101347.94;687896;28;1584;-42
2022/07/15 01:28:03;;;;;;;6.15;2.40;;;;;;;14.08;95.30;101350.53;687883;28;1714;-42
2022/07/15 01:28:23;;;;;;;6.30;2.25;;;;;;;14.06;95.78;101342.66;685012;28;1538;-42
2022/07/15 01:28:45;;;;;;;7.05;2.78;;;;;;;14.03;96.18;101345.34;687318;28;4534;-42
2022/07/15 01:29:06;;;;;;;7.22;2.58;;;;;;;14.02;95.97;101351.47;688833;28;1255;-43
2022/07/15 01:29:28;;;;;;;4.47;2.20;;;;;;;14.04;95.16;101347.09;689685;28;1557;-42
2022/07/15 01:29:49;;;;;;;5.97;2.30;;;;;;;14.04;95.93;101344.47;690719;28;1724;-44
2022/07/15 01:30:11;;;;;;;6.70;2.63;;;;;;;14.07;94.86;101348.81;687466;28;1469;-42
2022/07/15 01:30:31;;;;;;;6.07;2.70;;;;;;;14.09;95.11;101349.66;688643;28;1315;-41
2022/07/15 01:30:52;;;;;;;6.40;2.53;;;;;;;14.07;95.45;101344.44;690489;28;1414;-42
2022/07/15 01:31:13;;;;;;;4.97;2.47;;;;;;;14.05;96.04;101345.31;694951;28;1544;-43
2022/07/15 01:31:35;;;;;;;4.88;2.70;;;;;;;14.04;96.19;101348.81;691124;28;4805;-43
2022/07/15 01:31:56;;;;;;;6.23;2.73;;;;;;;14.04;96.55;101344.47;691912;28;1647;-42
2022/07/15 01:32:18;;;;;;;6.70;2.67;;;;;;;14.06;96.09;101347.06;689542;28;1278;-43
2022/07/15 01:32:39;;;;;;;7.72;3.38;;;;;;;14.08;95.82;101350.53;688445;28;1501;-43
2022/07/15 01:33:01;;;;;;;6.85;3.25;;;;;;;14.05;95.36;101345.31;688074;28;1640;-44
2022/07/15 01:33:21;;;;;;;5.00;2.50;;;;;;;14.09;95.09;101347.91;684444;28;1540;-42
2022/07/15 01:33:41;;;;;;;7.50;2.50;;;;;;;14.05;96.03;101345.31;685612;28;1274;-42
2022/07/15 01:34:02;;;;;;;7.53;2.50;;;;;;;14.03;95.96;101347.09;685417;28;1183;-43
2022/07/15 01:34:23;;;;;;;7.43;2.90;;;;;;;14.00;96.29;101344.47;685787;28;1751;-43
2022/07/15 01:34:45;;;;;;;7.73;2.60;;;;;;;14.04;95.83;101349.72;687757;28;4566;-41
2022/07/15 01:35:07;;;;;;;6.22;2.35;;;;;;;14.05;95.28;101346.22;689523;28;1257;-42
2022/07/15 01:35:31;;;;;;;7.15;2.22;;;;;;;14.01;96.26;101348.84;692167;28;1454;-44
2022/07/15 01:35:55;;;;;;;6.28;2.40;;;;;;;14.00;96.20;101347.09;693525;28;1217;-42
2022/07/15 01:36:16;;;;;;;6.20;2.47;;;;;;;14.00;95.50;101349.72;696450;28;1617;-44
2022/07/15 01:36:44;;;;;;;4.95;2.33;;;;;;;13.99;96.62;101348.88;697200;28;1848;-42
2022/07/15 01:37:05;;;;;;;5.38;2.40;;;;;;;14.00;96.08;101347.09;690400;28;1228;-42
2022/07/15 01:37:27;;;;;;;6.18;2.53;;;;;;;13.96;96.21;101352.41;688491;28;4706;-42
2022/07/15 01:37:51;;;;;;;6.78;2.47;;;;;;;13.92;96.27;101353.31;689771;28;1573;-42
2022/07/15 01:38:11;;;;;;;5.87;2.67;;;;;;;13.90;96.35;101348.94;689899;28;1803;-42
2022/07/15 01:38:33;;;;;;;5.00;2.60;;;;;;;13.90;95.90;101349.81;690965;28;1365;-42
2022/07/15 01:38:59;;;;;;;4.95;2.42;;;;;;;13.93;95.96;101354.19;690869;28;1721;-43
2022/07/15 01:39:19;;;;;;;5.63;2.70;;;;;;;13.87;96.85;101355.09;690908;28;1574;-42
2022/07/15 01:39:40;;;;;;;7.20;2.80;;;;;;;13.86;97.03;101344.59;692075;28;1595;-42
2022/07/15 01:40:00;;;;;;;6.97;2.50;;;;;;;13.90;95.96;101356.81;693367;28;1428;-42
2022/07/15 01:40:21;;;;;;;6.03;2.40;;;;;;;13.88;96.71;101354.22;694105;28;1209;-44
2022/07/15 01:40:42;;;;;;;5.93;2.60;;;;;;;13.91;97.11;101353.31;691674;28;4567;-42
2022/07/15 01:41:04;;;;;;;6.32;2.70;;;;;;;13.91;96.97;101354.19;692928;28;1619;-42
2022/07/15 01:41:24;;;;;;;6.77;2.60;;;;;;;13.87;97.23;101349.81;691035;28;1378;-42
2022/07/15 01:41:45;;;;;;;6.72;2.50;;;;;;;13.86;97.17;101361.25;689109;28;1580;-42
2022/07/15 01:42:09;;;;;;;5.75;2.60;;;;;;;13.82;97.55;101359.53;690102;28;1923;-42
2022/07/15 01:42:30;;;;;;;6.82;2.88;;;;;;;13.82;96.63;101358.63;695243;28;2014;-42
2022/07/15 01:42:50;;;;;;;7.35;2.70;;;;;;;13.82;97.10;101356.00;689218;28;1529;-42
2022/07/15 01:43:11;;;;;;;5.97;2.40;;;;;;;13.79;97.80;101354.28;687255;28;3365;-43
2022/07/15 01:43:32;;;;;;;6.93;2.53;;;;;;;13.78;97.82;101357.81;688481;28;4571;-42
2022/07/15 01:43:53;;;;;;;7.90;2.75;;;;;;;13.76;97.34;101360.44;692205;28;1498;-42
2022/07/15 01:44:14;;;;;;;6.65;2.63;;;;;;;13.77;97.22;101361.31;689404;28;1408;-43